sensor_id;sensor_type;location;lat;lon;timestamp;P1;durP1;ratioP1;P2;durP2;ratioP2
11328;SDS011;5719;42.714;23.732;2023-04-22T00:00:11;6.72;;;5.07;;
11328;SDS011;5719;42.714;23.732;2023-04-22T00:02:41;5.45;;;4.60;;
11328;SDS011;5719;42.714;23.732;2023-04-22T00:05:08;7.53;;;4.82;;
11328;SDS011;5719;42.714;23.732;2023-04-22T00:07:39;13.20;;;5.95;;
11328;SDS011;5719;42.714;23.732;2023-04-22T00:10:07;8.55;;;4.63;;
11328;SDS011;5719;42.714;23.732;2023-04-22T00:12:36;6.50;;;4.97;;
11328;SDS011;5719;42.714;23.732;2023-04-22T00:15:03;8.70;;;5.00;;
11328;SDS011;5719;42.714;23.732;2023-04-22T00:17:31;8.27;;;4.90;;
11328;SDS011;5719;42.714;23.732;2023-04-22T00:19:58;6.28;;;5.05;;
11328;SDS011;5719;42.714;23.732;2023-04-22T00:22:25;6.68;;;5.07;;
11328;SDS011;5719;42.714;23.732;2023-04-22T00:24:54;5.03;;;4.38;;
11328;SDS011;5719;42.714;23.732;2023-04-22T00:27:20;5.78;;;3.97;;
11328;SDS011;5719;42.714;23.732;2023-04-22T00:29:47;4.90;;;4.28;;
11328;SDS011;5719;42.714;23.732;2023-04-22T00:32:14;4.53;;;3.88;;
11328;SDS011;5719;42.714;23.732;2023-04-22T00:34:41;6.07;;;4.25;;
11328;SDS011;5719;42.714;23.732;2023-04-22T00:37:08;4.82;;;4.20;;
11328;SDS011;5719;42.714;23.732;2023-04-22T00:39:35;5.55;;;3.90;;
11328;SDS011;5719;42.714;23.732;2023-04-22T00:42:05;8.35;;;4.35;;
11328;SDS011;5719;42.714;23.732;2023-04-22T00:44:32;7.15;;;4.57;;
11328;SDS011;5719;42.714;23.732;2023-04-22T00:47:00;4.68;;;4.20;;
11328;SDS011;5719;42.714;23.732;2023-04-22T00:49:28;5.50;;;4.53;;
11328;SDS011;5719;42.714;23.732;2023-04-22T00:51:55;5.85;;;4.75;;
11328;SDS011;5719;42.714;23.732;2023-04-22T00:54:21;6.63;;;4.95;;
11328;SDS011;5719;42.714;23.732;2023-04-22T00:56:48;6.75;;;4.75;;
11328;SDS011;5719;42.714;23.732;2023-04-22T00:59:17;8.45;;;5.25;;
11328;SDS011;5719;42.714;23.732;2023-04-22T01:01:44;9.55;;;5.22;;
11328;SDS011;5719;42.714;23.732;2023-04-22T01:04:10;8.02;;;4.80;;
11328;SDS011;5719;42.714;23.732;2023-04-22T01:06:39;9.25;;;4.75;;
11328;SDS011;5719;42.714;23.732;2023-04-22T01:09:08;5.82;;;4.80;;
11328;SDS011;5719;42.714;23.732;2023-04-22T01:11:35;10.55;;;5.07;;
11328;SDS011;5719;42.714;23.732;2023-04-22T01:14:02;8.00;;;4.82;;
11328;SDS011;5719;42.714;23.732;2023-04-22T01:16:31;6.60;;;4.78;;
11328;SDS011;5719;42.714;23.732;2023-04-22T01:19:00;6.20;;;4.50;;
11328;SDS011;5719;42.714;23.732;2023-04-22T01:21:27;7.43;;;4.70;;
11328;SDS011;5719;42.714;23.732;2023-04-22T01:23:59;6.65;;;5.32;;
11328;SDS011;5719;42.714;23.732;2023-04-22T01:26:26;6.45;;;4.85;;
11328;SDS011;5719;42.714;23.732;2023-04-22T01:28:53;6.43;;;4.97;;
11328;SDS011;5719;42.714;23.732;2023-04-22T01:31:20;7.88;;;4.80;;
11328;SDS011;5719;42.714;23.732;2023-04-22T01:33:47;5.63;;;4.82;;
11328;SDS011;5719;42.714;23.732;2023-04-22T01:36:15;7.72;;;4.63;;
11328;SDS011;5719;42.714;23.732;2023-04-22T01:38:42;9.85;;;4.30;;
11328;SDS011;5719;42.714;23.732;2023-04-22T01:41:11;6.72;;;4.63;;
11328;SDS011;5719;42.714;23.732;2023-04-22T01:43:38;6.72;;;4.60;;
11328;SDS011;5719;42.714;23.732;2023-04-22T01:46:05;6.93;;;4.40;;
11328;SDS011;5719;42.714;23.732;2023-04-22T01:48:33;7.57;;;4.85;;
11328;SDS011;5719;42.714;23.732;2023-04-22T01:51:00;8.35;;;5.35;;
11328;SDS011;5719;42.714;23.732;2023-04-22T01:53:27;16.13;;;8.25;;
11328;SDS011;5719;42.714;23.732;2023-04-22T01:55:55;11.88;;;7.47;;
11328;SDS011;5719;42.714;23.732;2023-04-22T01:58:23;9.27;;;5.90;;
11328;SDS011;5719;42.714;23.732;2023-04-22T02:00:50;10.98;;;6.10;;
11328;SDS011;5719;42.714;23.732;2023-04-22T02:03:17;15.07;;;7.45;;
11328;SDS011;5719;42.714;23.732;2023-04-22T02:05:44;13.93;;;7.00;;
11328;SDS011;5719;42.714;23.732;2023-04-22T02:08:10;9.68;;;6.53;;
11328;SDS011;5719;42.714;23.732;2023-04-22T02:10:37;11.52;;;7.28;;
11328;SDS011;5719;42.714;23.732;2023-04-22T02:13:04;11.20;;;7.05;;
11328;SDS011;5719;42.714;23.732;2023-04-22T02:15:33;10.65;;;6.88;;
11328;SDS011;5719;42.714;23.732;2023-04-22T02:17:59;14.88;;;7.10;;
11328;SDS011;5719;42.714;23.732;2023-04-22T02:20:27;10.60;;;6.05;;
11328;SDS011;5719;42.714;23.732;2023-04-22T02:22:54;9.98;;;6.07;;
11328;SDS011;5719;42.714;23.732;2023-04-22T02:25:21;11.43;;;6.07;;
11328;SDS011;5719;42.714;23.732;2023-04-22T02:27:47;12.18;;;5.85;;
11328;SDS011;5719;42.714;23.732;2023-04-22T02:30:14;7.78;;;5.57;;
11328;SDS011;5719;42.714;23.732;2023-04-22T02:32:43;9.93;;;5.38;;
11328;SDS011;5719;42.714;23.732;2023-04-22T02:35:10;7.30;;;5.30;;
11328;SDS011;5719;42.714;23.732;2023-04-22T02:37:37;12.50;;;5.57;;
11328;SDS011;5719;42.714;23.732;2023-04-22T02:40:04;7.63;;;4.93;;
11328;SDS011;5719;42.714;23.732;2023-04-22T02:42:32;11.02;;;5.63;;
11328;SDS011;5719;42.714;23.732;2023-04-22T02:45:00;8.68;;;5.18;;
11328;SDS011;5719;42.714;23.732;2023-04-22T02:47:27;10.95;;;5.13;;
11328;SDS011;5719;42.714;23.732;2023-04-22T02:49:55;9.23;;;5.15;;
11328;SDS011;5719;42.714;23.732;2023-04-22T02:52:22;7.80;;;5.20;;
11328;SDS011;5719;42.714;23.732;2023-04-22T02:54:49;7.35;;;5.50;;
11328;SDS011;5719;42.714;23.732;2023-04-22T02:57:15;9.10;;;5.03;;
11328;SDS011;5719;42.714;23.732;2023-04-22T02:59:42;6.90;;;4.93;;
11328;SDS011;5719;42.714;23.732;2023-04-22T03:02:09;5.88;;;4.68;;
11328;SDS011;5719;42.714;23.732;2023-04-22T03:04:36;7.75;;;5.18;;
11328;SDS011;5719;42.714;23.732;2023-04-22T03:07:04;7.45;;;4.90;;
11328;SDS011;5719;42.714;23.732;2023-04-22T03:09:32;8.52;;;4.78;;
11328;SDS011;5719;42.714;23.732;2023-04-22T03:11:59;10.23;;;5.63;;
11328;SDS011;5719;42.714;23.732;2023-04-22T03:14:26;8.35;;;5.93;;
11328;SDS011;5719;42.714;23.732;2023-04-22T03:16:53;9.85;;;5.70;;
11328;SDS011;5719;42.714;23.732;2023-04-22T03:19:20;7.40;;;5.35;;
11328;SDS011;5719;42.714;23.732;2023-04-22T03:21:47;10.32;;;5.22;;
11328;SDS011;5719;42.714;23.732;2023-04-22T03:24:15;6.97;;;4.82;;
11328;SDS011;5719;42.714;23.732;2023-04-22T03:26:42;13.02;;;5.70;;
11328;SDS011;5719;42.714;23.732;2023-04-22T03:29:10;9.05;;;5.43;;
11328;SDS011;5719;42.714;23.732;2023-04-22T03:31:36;5.75;;;4.90;;
11328;SDS011;5719;42.714;23.732;2023-04-22T03:34:03;8.80;;;5.68;;
11328;SDS011;5719;42.714;23.732;2023-04-22T03:36:30;6.28;;;4.55;;
11328;SDS011;5719;42.714;23.732;2023-04-22T03:38:57;6.78;;;4.93;;
11328;SDS011;5719;42.714;23.732;2023-04-22T03:41:25;9.32;;;4.80;;
11328;SDS011;5719;42.714;23.732;2023-04-22T03:43:52;5.97;;;4.57;;
11328;SDS011;5719;42.714;23.732;2023-04-22T03:46:19;9.07;;;5.80;;
11328;SDS011;5719;42.714;23.732;2023-04-22T03:48:46;7.07;;;5.35;;
11328;SDS011;5719;42.714;23.732;2023-04-22T03:51:13;10.43;;;5.95;;
11328;SDS011;5719;42.714;23.732;2023-04-22T03:53:39;9.07;;;6.57;;
11328;SDS011;5719;42.714;23.732;2023-04-22T03:56:06;9.88;;;6.70;;
11328;SDS011;5719;42.714;23.732;2023-04-22T03:58:35;6.93;;;5.22;;
11328;SDS011;5719;42.714;23.732;2023-04-22T04:01:01;8.55;;;6.30;;
11328;SDS011;5719;42.714;23.732;2023-04-22T04:03:28;18.33;;;8.98;;
11328;SDS011;5719;42.714;23.732;2023-04-22T04:05:55;32.58;;;15.18;;
11328;SDS011;5719;42.714;23.732;2023-04-22T04:08:22;32.28;;;13.55;;
11328;SDS011;5719;42.714;23.732;2023-04-22T04:10:49;54.83;;;19.35;;
11328;SDS011;5719;42.714;23.732;2023-04-22T04:13:16;46.42;;;18.83;;
11328;SDS011;5719;42.714;23.732;2023-04-22T04:15:44;47.25;;;17.85;;
11328;SDS011;5719;42.714;23.732;2023-04-22T04:18:11;43.90;;;16.45;;
11328;SDS011;5719;42.714;23.732;2023-04-22T04:20:38;35.58;;;15.48;;
11328;SDS011;5719;42.714;23.732;2023-04-22T04:23:05;38.20;;;15.27;;
11328;SDS011;5719;42.714;23.732;2023-04-22T04:25:32;35.20;;;14.50;;
11328;SDS011;5719;42.714;23.732;2023-04-22T04:28:02;19.83;;;10.52;;
11328;SDS011;5719;42.714;23.732;2023-04-22T04:30:29;28.58;;;13.00;;
11328;SDS011;5719;42.714;23.732;2023-04-22T04:32:58;28.00;;;14.10;;
11328;SDS011;5719;42.714;23.732;2023-04-22T04:35:30;30.90;;;14.43;;
11328;SDS011;5719;42.714;23.732;2023-04-22T04:37:58;32.50;;;12.00;;
11328;SDS011;5719;42.714;23.732;2023-04-22T04:40:25;19.10;;;10.52;;
11328;SDS011;5719;42.714;23.732;2023-04-22T04:42:53;24.13;;;11.07;;
11328;SDS011;5719;42.714;23.732;2023-04-22T04:45:21;19.40;;;9.48;;
11328;SDS011;5719;42.714;23.732;2023-04-22T04:47:49;9.82;;;6.78;;
11328;SDS011;5719;42.714;23.732;2023-04-22T04:50:18;11.27;;;6.93;;
11328;SDS011;5719;42.714;23.732;2023-04-22T04:52:45;10.85;;;7.20;;
11328;SDS011;5719;42.714;23.732;2023-04-22T04:55:12;9.98;;;6.65;;
11328;SDS011;5719;42.714;23.732;2023-04-22T04:57:40;6.82;;;5.68;;
11328;SDS011;5719;42.714;23.732;2023-04-22T05:00:07;7.50;;;5.57;;
11328;SDS011;5719;42.714;23.732;2023-04-22T05:02:34;10.13;;;6.55;;
11328;SDS011;5719;42.714;23.732;2023-04-22T05:05:01;12.27;;;6.25;;
11328;SDS011;5719;42.714;23.732;2023-04-22T05:07:29;9.07;;;5.72;;
11328;SDS011;5719;42.714;23.732;2023-04-22T05:09:56;8.52;;;5.70;;
11328;SDS011;5719;42.714;23.732;2023-04-22T05:12:24;7.38;;;5.40;;
11328;SDS011;5719;42.714;23.732;2023-04-22T05:14:51;8.30;;;5.68;;
11328;SDS011;5719;42.714;23.732;2023-04-22T05:17:18;8.38;;;6.32;;
11328;SDS011;5719;42.714;23.732;2023-04-22T05:19:46;13.35;;;8.30;;
11328;SDS011;5719;42.714;23.732;2023-04-22T05:22:13;10.88;;;7.90;;
11328;SDS011;5719;42.714;23.732;2023-04-22T05:24:41;10.45;;;7.80;;
11328;SDS011;5719;42.714;23.732;2023-04-22T05:27:08;9.80;;;7.70;;
11328;SDS011;5719;42.714;23.732;2023-04-22T05:29:35;10.70;;;7.90;;
11328;SDS011;5719;42.714;23.732;2023-04-22T05:32:02;9.40;;;7.45;;
11328;SDS011;5719;42.714;23.732;2023-04-22T05:34:29;11.60;;;7.10;;
11328;SDS011;5719;42.714;23.732;2023-04-22T05:36:56;7.85;;;6.93;;
11328;SDS011;5719;42.714;23.732;2023-04-22T05:39:22;8.68;;;6.25;;
11328;SDS011;5719;42.714;23.732;2023-04-22T05:41:51;7.53;;;5.75;;
11328;SDS011;5719;42.714;23.732;2023-04-22T05:44:18;6.82;;;5.55;;
11328;SDS011;5719;42.714;23.732;2023-04-22T05:46:45;9.60;;;5.63;;
11328;SDS011;5719;42.714;23.732;2023-04-22T05:49:12;7.28;;;5.95;;
11328;SDS011;5719;42.714;23.732;2023-04-22T05:51:39;7.90;;;5.88;;
11328;SDS011;5719;42.714;23.732;2023-04-22T05:54:07;6.68;;;5.82;;
11328;SDS011;5719;42.714;23.732;2023-04-22T05:56:34;7.60;;;5.82;;
11328;SDS011;5719;42.714;23.732;2023-04-22T05:59:02;10.00;;;5.75;;
11328;SDS011;5719;42.714;23.732;2023-04-22T06:01:29;6.13;;;5.20;;
11328;SDS011;5719;42.714;23.732;2023-04-22T06:03:56;6.82;;;5.82;;
11328;SDS011;5719;42.714;23.732;2023-04-22T06:06:23;7.80;;;5.55;;
11328;SDS011;5719;42.714;23.732;2023-04-22T06:08:50;9.27;;;5.75;;
11328;SDS011;5719;42.714;23.732;2023-04-22T06:11:17;6.97;;;5.68;;
11328;SDS011;5719;42.714;23.732;2023-04-22T06:13:44;6.68;;;5.28;;
11328;SDS011;5719;42.714;23.732;2023-04-22T06:16:12;7.00;;;5.90;;
11328;SDS011;5719;42.714;23.732;2023-04-22T06:18:39;9.48;;;5.53;;
11328;SDS011;5719;42.714;23.732;2023-04-22T06:21:07;7.32;;;6.30;;
11328;SDS011;5719;42.714;23.732;2023-04-22T06:23:34;6.55;;;5.63;;
11328;SDS011;5719;42.714;23.732;2023-04-22T06:26:01;7.82;;;6.28;;
11328;SDS011;5719;42.714;23.732;2023-04-22T06:28:28;7.18;;;6.30;;
11328;SDS011;5719;42.714;23.732;2023-04-22T06:30:55;12.27;;;6.63;;
11328;SDS011;5719;42.714;23.732;2023-04-22T06:33:24;8.80;;;5.65;;
11328;SDS011;5719;42.714;23.732;2023-04-22T06:35:51;9.52;;;5.20;;
11328;SDS011;5719;42.714;23.732;2023-04-22T06:38:18;8.00;;;5.53;;
11328;SDS011;5719;42.714;23.732;2023-04-22T06:40:45;6.28;;;5.03;;
11328;SDS011;5719;42.714;23.732;2023-04-22T06:43:11;5.60;;;4.78;;
11328;SDS011;5719;42.714;23.732;2023-04-22T06:45:38;8.13;;;4.80;;
11328;SDS011;5719;42.714;23.732;2023-04-22T06:48:05;8.00;;;5.13;;
11328;SDS011;5719;42.714;23.732;2023-04-22T06:50:33;5.45;;;4.95;;
11328;SDS011;5719;42.714;23.732;2023-04-22T06:53:01;5.15;;;4.63;;
11328;SDS011;5719;42.714;23.732;2023-04-22T06:55:28;9.50;;;4.40;;
11328;SDS011;5719;42.714;23.732;2023-04-22T06:57:55;5.22;;;4.10;;
11328;SDS011;5719;42.714;23.732;2023-04-22T07:00:22;4.80;;;4.30;;
11328;SDS011;5719;42.714;23.732;2023-04-22T07:02:49;6.82;;;4.38;;
11328;SDS011;5719;42.714;23.732;2023-04-22T07:05:16;5.55;;;4.57;;
11328;SDS011;5719;42.714;23.732;2023-04-22T07:07:45;4.57;;;4.18;;
11328;SDS011;5719;42.714;23.732;2023-04-22T07:10:12;6.32;;;4.93;;
11328;SDS011;5719;42.714;23.732;2023-04-22T07:12:39;6.35;;;5.13;;
11328;SDS011;5719;42.714;23.732;2023-04-22T07:15:07;10.02;;;6.03;;
11328;SDS011;5719;42.714;23.732;2023-04-22T07:17:34;9.20;;;5.43;;
11328;SDS011;5719;42.714;23.732;2023-04-22T07:20:01;6.63;;;5.50;;
11328;SDS011;5719;42.714;23.732;2023-04-22T07:22:28;6.00;;;5.10;;
11328;SDS011;5719;42.714;23.732;2023-04-22T07:24:56;6.57;;;5.32;;
11328;SDS011;5719;42.714;23.732;2023-04-22T07:27:23;7.43;;;5.60;;
11328;SDS011;5719;42.714;23.732;2023-04-22T07:29:50;6.35;;;4.40;;
11328;SDS011;5719;42.714;23.732;2023-04-22T07:32:17;6.03;;;4.85;;
11328;SDS011;5719;42.714;23.732;2023-04-22T07:34:44;5.32;;;4.40;;
11328;SDS011;5719;42.714;23.732;2023-04-22T07:37:11;4.78;;;4.10;;
11328;SDS011;5719;42.714;23.732;2023-04-22T07:39:38;5.22;;;4.15;;
11328;SDS011;5719;42.714;23.732;2023-04-22T07:42:07;4.85;;;4.28;;
11328;SDS011;5719;42.714;23.732;2023-04-22T07:44:34;5.90;;;4.00;;
11328;SDS011;5719;42.714;23.732;2023-04-22T07:47:01;5.72;;;4.40;;
11328;SDS011;5719;42.714;23.732;2023-04-22T07:49:27;8.20;;;4.30;;
11328;SDS011;5719;42.714;23.732;2023-04-22T07:51:55;4.25;;;3.85;;
11328;SDS011;5719;42.714;23.732;2023-04-22T07:54:23;5.78;;;3.50;;
11328;SDS011;5719;42.714;23.732;2023-04-22T07:56:50;3.50;;;3.10;;
11328;SDS011;5719;42.714;23.732;2023-04-22T07:59:19;3.53;;;3.22;;
11328;SDS011;5719;42.714;23.732;2023-04-22T08:01:45;4.85;;;3.60;;
11328;SDS011;5719;42.714;23.732;2023-04-22T08:04:12;4.20;;;3.53;;
11328;SDS011;5719;42.714;23.732;2023-04-22T08:06:39;6.07;;;3.40;;
11328;SDS011;5719;42.714;23.732;2023-04-22T08:09:07;6.57;;;3.88;;
11328;SDS011;5719;42.714;23.732;2023-04-22T08:11:34;12.23;;;3.85;;
11328;SDS011;5719;42.714;23.732;2023-04-22T08:14:01;4.75;;;3.30;;
11328;SDS011;5719;42.714;23.732;2023-04-22T08:16:29;3.50;;;3.20;;
11328;SDS011;5719;42.714;23.732;2023-04-22T08:18:56;4.53;;;3.00;;
11328;SDS011;5719;42.714;23.732;2023-04-22T08:21:23;3.50;;;3.10;;
11328;SDS011;5719;42.714;23.732;2023-04-22T08:23:51;4.13;;;3.30;;
11328;SDS011;5719;42.714;23.732;2023-04-22T08:26:19;5.45;;;3.47;;
11328;SDS011;5719;42.714;23.732;2023-04-22T08:28:46;7.38;;;3.28;;
11328;SDS011;5719;42.714;23.732;2023-04-22T08:31:13;4.15;;;3.30;;
11328;SDS011;5719;42.714;23.732;2023-04-22T08:33:41;3.13;;;2.80;;
11328;SDS011;5719;42.714;23.732;2023-04-22T08:36:08;5.20;;;3.08;;
11328;SDS011;5719;42.714;23.732;2023-04-22T08:38:35;4.43;;;2.95;;
11328;SDS011;5719;42.714;23.732;2023-04-22T08:41:02;4.55;;;2.88;;
11328;SDS011;5719;42.714;23.732;2023-04-22T08:43:31;4.85;;;3.05;;
11328;SDS011;5719;42.714;23.732;2023-04-22T08:45:58;5.03;;;3.05;;
11328;SDS011;5719;42.714;23.732;2023-04-22T08:48:26;9.15;;;2.65;;
11328;SDS011;5719;42.714;23.732;2023-04-22T08:50:54;5.10;;;2.20;;
11328;SDS011;5719;42.714;23.732;2023-04-22T08:53:23;3.72;;;2.47;;
11328;SDS011;5719;42.714;23.732;2023-04-22T08:55:50;10.00;;;2.90;;
11328;SDS011;5719;42.714;23.732;2023-04-22T08:58:21;6.10;;;2.90;;
11328;SDS011;5719;42.714;23.732;2023-04-22T09:00:48;4.38;;;2.78;;
11328;SDS011;5719;42.714;23.732;2023-04-22T09:03:16;6.25;;;2.45;;
11328;SDS011;5719;42.714;23.732;2023-04-22T09:05:43;4.72;;;2.13;;
11328;SDS011;5719;42.714;23.732;2023-04-22T09:08:13;4.35;;;2.42;;
11328;SDS011;5719;42.714;23.732;2023-04-22T09:10:41;3.92;;;2.17;;
11328;SDS011;5719;42.714;23.732;2023-04-22T09:13:09;3.33;;;2.30;;
11328;SDS011;5719;42.714;23.732;2023-04-22T09:15:37;3.75;;;2.08;;
11328;SDS011;5719;42.714;23.732;2023-04-22T09:18:04;4.00;;;2.20;;
11328;SDS011;5719;42.714;23.732;2023-04-22T09:20:31;2.65;;;1.98;;
11328;SDS011;5719;42.714;23.732;2023-04-22T09:23:00;6.47;;;2.10;;
11328;SDS011;5719;42.714;23.732;2023-04-22T09:25:31;3.70;;;2.60;;
11328;SDS011;5719;42.714;23.732;2023-04-22T09:27:59;4.40;;;2.03;;
11328;SDS011;5719;42.714;23.732;2023-04-22T09:30:29;1.83;;;1.70;;
11328;SDS011;5719;42.714;23.732;2023-04-22T09:32:58;4.18;;;1.73;;
11328;SDS011;5719;42.714;23.732;2023-04-22T09:35:26;2.47;;;1.70;;
11328;SDS011;5719;42.714;23.732;2023-04-22T09:37:54;2.08;;;1.98;;
11328;SDS011;5719;42.714;23.732;2023-04-22T09:40:22;2.70;;;2.05;;
11328;SDS011;5719;42.714;23.732;2023-04-22T09:42:50;4.72;;;2.50;;
11328;SDS011;5719;42.714;23.732;2023-04-22T09:45:25;3.70;;;2.40;;
11328;SDS011;5719;42.714;23.732;2023-04-22T09:47:56;4.63;;;2.25;;
11328;SDS011;5719;42.714;23.732;2023-04-22T09:50:28;6.70;;;2.95;;
11328;SDS011;5719;42.714;23.732;2023-04-22T09:52:55;6.00;;;2.40;;
11328;SDS011;5719;42.714;23.732;2023-04-22T09:55:24;6.38;;;2.50;;
11328;SDS011;5719;42.714;23.732;2023-04-22T09:57:54;3.08;;;2.35;;
11328;SDS011;5719;42.714;23.732;2023-04-22T10:00:23;6.00;;;2.60;;
11328;SDS011;5719;42.714;23.732;2023-04-22T10:02:52;4.55;;;2.80;;
11328;SDS011;5719;42.714;23.732;2023-04-22T10:05:19;4.50;;;2.55;;
11328;SDS011;5719;42.714;23.732;2023-04-22T10:07:47;3.42;;;2.17;;
11328;SDS011;5719;42.714;23.732;2023-04-22T10:10:15;1.98;;;1.88;;
11328;SDS011;5719;42.714;23.732;2023-04-22T10:12:42;4.22;;;1.88;;
11328;SDS011;5719;42.714;23.732;2023-04-22T10:15:11;2.60;;;1.15;;
11328;SDS011;5719;42.714;23.732;2023-04-22T10:17:38;5.05;;;1.77;;
11328;SDS011;5719;42.714;23.732;2023-04-22T10:20:08;4.15;;;1.13;;
11328;SDS011;5719;42.714;23.732;2023-04-22T10:22:39;1.75;;;1.50;;
11328;SDS011;5719;42.714;23.732;2023-04-22T10:25:10;1.98;;;1.50;;
11328;SDS011;5719;42.714;23.732;2023-04-22T10:27:39;2.03;;;1.42;;
11328;SDS011;5719;42.714;23.732;2023-04-22T10:30:07;2.17;;;1.40;;
11328;SDS011;5719;42.714;23.732;2023-04-22T10:32:37;3.42;;;1.30;;
11328;SDS011;5719;42.714;23.732;2023-04-22T10:35:08;2.67;;;1.20;;
11328;SDS011;5719;42.714;23.732;2023-04-22T10:37:39;4.78;;;1.90;;
11328;SDS011;5719;42.714;23.732;2023-04-22T10:40:08;1.67;;;1.00;;
11328;SDS011;5719;42.714;23.732;2023-04-22T10:42:40;3.90;;;1.88;;
11328;SDS011;5719;42.714;23.732;2023-04-22T10:45:11;3.85;;;1.80;;
11328;SDS011;5719;42.714;23.732;2023-04-22T10:47:41;4.47;;;2.03;;
11328;SDS011;5719;42.714;23.732;2023-04-22T10:50:12;3.13;;;1.52;;
11328;SDS011;5719;42.714;23.732;2023-04-22T10:52:45;2.53;;;1.63;;
11328;SDS011;5719;42.714;23.732;2023-04-22T10:55:14;7.47;;;2.20;;
11328;SDS011;5719;42.714;23.732;2023-04-22T10:57:41;4.50;;;2.15;;
11328;SDS011;5719;42.714;23.732;2023-04-22T11:00:28;5.72;;;1.98;;
11328;SDS011;5719;42.714;23.732;2023-04-22T11:03:12;2.33;;;1.70;;
11328;SDS011;5719;42.714;23.732;2023-04-22T11:05:42;2.75;;;2.20;;
11328;SDS011;5719;42.714;23.732;2023-04-22T13:54:53;3.30;;;1.52;;
11328;SDS011;5719;42.714;23.732;2023-04-22T13:57:20;1.85;;;1.70;;
11328;SDS011;5719;42.714;23.732;2023-04-22T13:59:47;3.80;;;1.60;;
11328;SDS011;5719;42.714;23.732;2023-04-22T14:02:14;6.70;;;2.60;;
11328;SDS011;5719;42.714;23.732;2023-04-22T14:04:41;2.85;;;1.95;;
11328;SDS011;5719;42.714;23.732;2023-04-22T14:07:08;2.40;;;1.65;;
11328;SDS011;5719;42.714;23.732;2023-04-22T14:09:36;3.28;;;1.52;;
11328;SDS011;5719;42.714;23.732;2023-04-22T14:12:05;6.57;;;1.60;;
11328;SDS011;5719;42.714;23.732;2023-04-22T14:14:33;4.40;;;1.60;;
11328;SDS011;5719;42.714;23.732;2023-04-22T14:17:00;3.75;;;1.65;;
11328;SDS011;5719;42.714;23.732;2023-04-22T14:19:26;5.03;;;1.58;;
11328;SDS011;5719;42.714;23.732;2023-04-22T14:21:54;3.20;;;1.30;;
11328;SDS011;5719;42.714;23.732;2023-04-22T14:24:21;2.80;;;1.45;;
11328;SDS011;5719;42.714;23.732;2023-04-22T14:26:48;6.50;;;1.88;;
11328;SDS011;5719;42.714;23.732;2023-04-22T14:29:17;3.25;;;1.70;;
11328;SDS011;5719;42.714;23.732;2023-04-22T14:31:44;2.85;;;1.70;;
11328;SDS011;5719;42.714;23.732;2023-04-22T14:34:11;2.55;;;1.70;;
11328;SDS011;5719;42.714;23.732;2023-04-22T14:36:38;4.15;;;1.70;;
11328;SDS011;5719;42.714;23.732;2023-04-22T14:39:05;3.20;;;1.65;;
11328;SDS011;5719;42.714;23.732;2023-04-22T14:41:32;2.78;;;1.77;;
11328;SDS011;5719;42.714;23.732;2023-04-22T14:43:59;3.72;;;1.88;;
11328;SDS011;5719;42.714;23.732;2023-04-22T14:46:27;2.80;;;1.67;;
11328;SDS011;5719;42.714;23.732;2023-04-22T14:48:55;6.28;;;1.80;;
11328;SDS011;5719;42.714;23.732;2023-04-22T14:51:22;3.55;;;1.67;;
11328;SDS011;5719;42.714;23.732;2023-04-22T14:53:49;5.18;;;1.75;;
11328;SDS011;5719;42.714;23.732;2023-04-22T14:56:15;6.32;;;2.03;;
11328;SDS011;5719;42.714;23.732;2023-04-22T14:58:42;4.68;;;1.77;;
11328;SDS011;5719;42.714;23.732;2023-04-22T15:01:09;4.22;;;2.00;;
11328;SDS011;5719;42.714;23.732;2023-04-22T15:03:38;3.75;;;1.88;;
11328;SDS011;5719;42.714;23.732;2023-04-22T15:06:05;5.75;;;2.10;;
11328;SDS011;5719;42.714;23.732;2023-04-22T15:08:32;4.13;;;1.85;;
11328;SDS011;5719;42.714;23.732;2023-04-22T15:10:59;3.85;;;2.13;;
11328;SDS011;5719;42.714;23.732;2023-04-22T15:13:26;2.10;;;1.63;;
11328;SDS011;5719;42.714;23.732;2023-04-22T15:15:53;2.22;;;1.77;;
11328;SDS011;5719;42.714;23.732;2023-04-22T15:18:20;6.03;;;1.80;;
11328;SDS011;5719;42.714;23.732;2023-04-22T15:20:48;5.60;;;1.95;;
11328;SDS011;5719;42.714;23.732;2023-04-22T15:23:15;3.30;;;1.83;;
11328;SDS011;5719;42.714;23.732;2023-04-22T15:25:42;4.93;;;1.83;;
11328;SDS011;5719;42.714;23.732;2023-04-22T15:28:10;6.53;;;2.47;;
11328;SDS011;5719;42.714;23.732;2023-04-22T15:30:36;3.25;;;2.03;;
11328;SDS011;5719;42.714;23.732;2023-04-22T15:33:04;4.05;;;2.10;;
11328;SDS011;5719;42.714;23.732;2023-04-22T15:35:31;2.50;;;1.92;;
11328;SDS011;5719;42.714;23.732;2023-04-22T15:38:00;3.50;;;2.13;;
11328;SDS011;5719;42.714;23.732;2023-04-22T15:40:27;6.65;;;1.92;;
11328;SDS011;5719;42.714;23.732;2023-04-22T15:42:54;5.47;;;2.13;;
11328;SDS011;5719;42.714;23.732;2023-04-22T15:45:21;2.00;;;1.90;;
11328;SDS011;5719;42.714;23.732;2023-04-22T15:47:48;2.00;;;1.90;;
11328;SDS011;5719;42.714;23.732;2023-04-22T15:50:16;2.25;;;1.85;;
11328;SDS011;5719;42.714;23.732;2023-04-22T15:52:43;2.10;;;1.80;;
11328;SDS011;5719;42.714;23.732;2023-04-22T15:55:12;3.75;;;2.00;;
11328;SDS011;5719;42.714;23.732;2023-04-22T15:57:39;3.83;;;1.65;;
11328;SDS011;5719;42.714;23.732;2023-04-22T16:00:06;1.80;;;1.70;;
11328;SDS011;5719;42.714;23.732;2023-04-22T16:02:34;2.20;;;2.10;;
11328;SDS011;5719;42.714;23.732;2023-04-22T16:05:02;2.30;;;1.80;;
11328;SDS011;5719;42.714;23.732;2023-04-22T16:07:29;3.58;;;2.03;;
11328;SDS011;5719;42.714;23.732;2023-04-22T16:09:56;2.70;;;2.20;;
11328;SDS011;5719;42.714;23.732;2023-04-22T16:12:24;3.72;;;2.03;;
11328;SDS011;5719;42.714;23.732;2023-04-22T16:14:51;2.33;;;2.03;;
11328;SDS011;5719;42.714;23.732;2023-04-22T16:17:18;4.32;;;2.35;;
11328;SDS011;5719;42.714;23.732;2023-04-22T16:19:46;3.33;;;2.10;;
11328;SDS011;5719;42.714;23.732;2023-04-22T16:22:13;2.72;;;1.85;;
11328;SDS011;5719;42.714;23.732;2023-04-22T16:24:40;2.22;;;1.90;;
11328;SDS011;5719;42.714;23.732;2023-04-22T16:27:07;2.53;;;2.00;;
11328;SDS011;5719;42.714;23.732;2023-04-22T16:29:35;4.30;;;2.08;;
11328;SDS011;5719;42.714;23.732;2023-04-22T16:32:03;2.50;;;2.30;;
11328;SDS011;5719;42.714;23.732;2023-04-22T16:34:30;2.50;;;1.90;;
11328;SDS011;5719;42.714;23.732;2023-04-22T16:36:57;3.00;;;2.33;;
11328;SDS011;5719;42.714;23.732;2023-04-22T16:39:24;4.22;;;2.38;;
11328;SDS011;5719;42.714;23.732;2023-04-22T16:41:52;4.03;;;2.38;;
11328;SDS011;5719;42.714;23.732;2023-04-22T16:44:19;2.25;;;2.05;;
11328;SDS011;5719;42.714;23.732;2023-04-22T16:46:47;6.03;;;2.13;;
11328;SDS011;5719;42.714;23.732;2023-04-22T16:49:14;3.80;;;2.25;;
11328;SDS011;5719;42.714;23.732;2023-04-22T16:51:41;2.40;;;2.20;;
11328;SDS011;5719;42.714;23.732;2023-04-22T16:54:08;2.90;;;2.70;;
11328;SDS011;5719;42.714;23.732;2023-04-22T16:56:36;4.03;;;2.17;;
11328;SDS011;5719;42.714;23.732;2023-04-22T16:59:03;3.38;;;2.50;;
11328;SDS011;5719;42.714;23.732;2023-04-22T17:01:30;3.78;;;2.50;;
11328;SDS011;5719;42.714;23.732;2023-04-22T17:03:58;4.15;;;2.42;;
11328;SDS011;5719;42.714;23.732;2023-04-22T17:06:26;4.75;;;2.88;;
11328;SDS011;5719;42.714;23.732;2023-04-22T17:08:53;3.95;;;2.80;;
11328;SDS011;5719;42.714;23.732;2023-04-22T17:11:20;8.23;;;2.58;;
11328;SDS011;5719;42.714;23.732;2023-04-22T17:13:48;2.75;;;2.55;;
11328;SDS011;5719;42.714;23.732;2023-04-22T17:16:15;5.70;;;2.63;;
11328;SDS011;5719;42.714;23.732;2023-04-22T17:18:42;6.88;;;2.70;;
11328;SDS011;5719;42.714;23.732;2023-04-22T17:21:12;3.90;;;2.58;;
11328;SDS011;5719;42.714;23.732;2023-04-22T17:23:40;6.35;;;2.60;;
11328;SDS011;5719;42.714;23.732;2023-04-22T17:26:07;9.27;;;3.00;;
11328;SDS011;5719;42.714;23.732;2023-04-22T17:28:34;3.97;;;2.90;;
11328;SDS011;5719;42.714;23.732;2023-04-22T17:31:01;4.93;;;2.92;;
11328;SDS011;5719;42.714;23.732;2023-04-22T17:33:28;5.50;;;2.70;;